Time;durP1;ratioP1;P1;durP2;ratioP2;P2;SDS_P1;SDS_P2;PMS_P1;PMS_P2;Temp;Humidity;BMP_temperature;BMP_pressure;BME280_temperature;BME280_humidity;BME280_pressure;Samples;Min_cycle;Max_cycle;Signal;HPM_P1;HPM_P2
2023/02/26 00:00:47;;;;;;;5.63;4.93;;;;;;;;;;5037302;28;20056;-95
2023/02/26 00:03:14;;;;;;;8.02;6.75;;;;;;;;;;5035772;28;20099;-95
2023/02/26 00:05:41;;;;;;;6.25;5.90;;;;;;;;;;5036026;28;20049;-95
2023/02/26 00:08:08;;;;;;;6.30;5.88;;;;;;;;;;5036367;28;20056;-95
2023/02/26 00:10:34;;;;;;;5.95;5.60;;;;;;;;;;5037308;28;20057;-94
2023/02/26 00:13:01;;;;;;;6.35;5.75;;;;;;;;;;5036884;28;20801;-94
2023/02/26 00:15:28;;;;;;;4.75;4.45;;;;;;;;;;5038012;28;20049;-93
2023/02/26 00:17:59;;;;;;;5.68;5.30;;;;;;;;;;5027416;28;20046;-93
2023/02/26 00:20:26;;;;;;;4.32;4.03;;;;;;;;;;5016780;28;20053;-93
2023/02/26 00:22:53;;;;;;;7.90;7.40;;;;;;;;;;5016594;28;20053;-93
2023/02/26 00:25:19;;;;;;;4.68;3.63;;;;;;;;;;5018068;28;20053;-95
2023/02/26 00:27:46;;;;;;;7.72;6.60;;;;;;;;;;5017206;28;20046;-95
2023/02/26 00:30:13;;;;;;;7.65;7.05;;;;;;;;;;5030121;28;20080;-96
2023/02/26 00:32:40;;;;;;;12.73;7.05;;;;;;;;;;5034666;28;20463;-93
2023/02/26 00:35:12;;;;;;;5.78;4.22;;;;;;;;;;5035071;28;20045;-95
2023/02/26 00:37:50;;;;;;;5.97;5.65;;;;;;;;;;5036250;28;20053;-93
2023/02/26 00:40:21;;;;;;;9.93;6.05;;;;;;;;;;5035559;28;20045;-94
2023/02/26 00:42:48;;;;;;;3.63;3.40;;;;;;;;;;5034684;28;20054;-92
2023/02/26 00:45:15;;;;;;;4.85;4.13;;;;;;;;;;5035738;28;20191;-92
2023/02/26 00:47:45;;;;;;;14.73;5.72;;;;;;;;;;5034826;28;20100;-93
2023/02/26 00:50:17;;;;;;;4.20;3.90;;;;;;;;;;5034428;28;20187;-92
2023/02/26 00:52:48;;;;;;;5.65;5.35;;;;;;;;;;5034990;28;20053;-94
2023/02/26 00:55:15;;;;;;;4.47;4.15;;;;;;;;;;5035502;28;20061;-93
2023/02/26 00:57:41;;;;;;;3.90;3.70;;;;;;;;;;5034687;28;20052;-94
2023/02/26 01:00:08;;;;;;;9.48;6.25;;;;;;;;;;5035331;28;20045;-93
2023/02/26 01:02:36;;;;;;;6.65;6.25;;;;;;;;;;5034553;28;20507;-94
2023/02/26 01:05:03;;;;;;;5.97;5.57;;;;;;;;;;5035103;28;20045;-93
2023/02/26 01:07:35;;;;;;;6.68;6.38;;;;;;;;;;5034276;28;20522;-93
2023/02/26 01:10:02;;;;;;;4.72;4.43;;;;;;;;;;5034692;28;20072;-93
2023/02/26 01:12:29;;;;;;;5.50;4.00;;;;;;;;;;5034490;28;20396;-93
2023/02/26 01:14:55;;;;;;;5.10;4.70;;;;;;;;;;5034282;28;20499;-94
2023/02/26 01:17:24;;;;;;;5.55;5.25;;;;;;;;;;5034024;28;20060;-93
2023/02/26 01:19:53;;;;;;;6.50;5.38;;;;;;;;;;5034609;28;20049;-94
2023/02/26 01:22:22;;;;;;;5.28;4.93;;;;;;;;;;5044292;28;20513;-94
2023/02/26 01:24:53;;;;;;;6.35;5.88;;;;;;;;;;5054430;28;20049;-93
2023/02/26 01:27:19;;;;;;;;;;;;;;;;;;5038842;28;20053;-93
2023/02/26 01:29:46;;;;;;;7.28;4.45;;;;;;;;;;5033964;28;20390;-94
2023/02/26 01:32:15;;;;;;;5.43;5.13;;;;;;;;;;5034340;28;20119;-92
2023/02/26 01:34:44;;;;;;;6.85;6.35;;;;;;;;;;5034078;28;20522;-93
2023/02/26 01:37:18;;;;;;;5.93;4.18;;;;;;;;;;5034415;28;20061;-94
2023/02/26 01:39:47;;;;;;;3.92;3.63;;;;;;;;;;5034510;28;20119;-93
2023/02/26 01:42:16;;;;;;;4.20;3.90;;;;;;;;;;5035175;28;20541;-92
2023/02/26 01:44:50;;;;;;;5.22;4.82;;;;;;;;;;5036018;28;20090;-92
2023/02/26 01:47:20;;;;;;;6.10;5.60;;;;;;;;;;5036528;28;20526;-93
2023/02/26 01:49:47;;;;;;;3.63;3.35;;;;;;;;;;5033865;28;20465;-93
2023/02/26 01:52:32;;;;;;;6.07;4.53;;;;;;;;;;5036833;28;20103;-94
2023/02/26 01:54:59;;;;;;;3.45;3.25;;;;;;;;;;5027664;28;20108;-92
2023/02/26 01:57:27;;;;;;;3.55;3.33;;;;;;;;;;5018027;28;20107;-94
2023/02/26 01:59:54;;;;;;;5.90;5.53;;;;;;;;;;5018110;28;20050;-94
2023/02/26 02:02:21;;;;;;;6.95;5.75;;;;;;;;;;5017530;28;20045;-94
2023/02/26 02:04:48;;;;;;;5.25;4.15;;;;;;;;;;5018083;28;20088;-94
2023/02/26 02:07:15;;;;;;;4.30;4.00;;;;;;;;;;5018995;28;20158;-94
2023/02/26 02:09:42;;;;;;;4.18;3.88;;;;;;;;;;5018523;28;20045;-94
2023/02/26 02:12:13;;;;;;;4.18;3.83;;;;;;;;;;5019411;28;20133;-93
2023/02/26 02:14:50;;;;;;;9.60;4.60;;;;;;;;;;5017879;28;20103;-93
2023/02/26 02:17:16;;;;;;;;;;;;;;;;;;5018196;28;20495;-94
2023/02/26 02:20:00;;;;;;;4.25;3.97;;;;;;;;;;5018167;28;19971;-94
2023/02/26 02:22:37;;;;;;;3.90;3.70;;;;;;;;;;5031163;28;20103;-95
2023/02/26 02:25:14;;;;;;;3.90;3.60;;;;;;;;;;5038744;28;20415;-92
2023/02/26 02:27:46;;;;;;;5.05;4.65;;;;;;;;;;5037134;28;20057;-93
2023/02/26 02:30:25;;;;;;;5.00;4.70;;;;;;;;;;5037653;28;20076;-93
2023/02/26 02:32:57;;;;;;;5.18;3.20;;;;;;;;;;5037237;28;20049;-93
2023/02/26 02:35:25;;;;;;;4.15;3.95;;;;;;;;;;5036675;28;20046;-93
2023/02/26 02:37:55;;;;;;;4.63;4.32;;;;;;;;;;5036478;28;20115;-95
2023/02/26 02:40:24;;;;;;;3.53;3.22;;;;;;;;;;5036848;28;20058;-94
2023/02/26 02:42:54;;;;;;;4.03;3.72;;;;;;;;;;5036901;28;20462;-94
2023/02/26 02:45:22;;;;;;;4.90;4.60;;;;;;;;;;5032962;28;20045;-94
2023/02/26 02:47:51;;;;;;;5.15;4.60;;;;;;;;;;5017153;28;20050;-93
2023/02/26 02:50:22;;;;;;;3.85;3.53;;;;;;;;;;5016962;28;20042;-93
2023/02/26 02:52:50;;;;;;;4.78;4.38;;;;;;;;;;5017175;28;20058;-94
2023/02/26 02:55:19;;;;;;;6.30;4.53;;;;;;;;;;5016827;28;20050;-94
2023/02/26 02:57:48;;;;;;;3.67;3.55;;;;;;;;;;5017136;28;20054;-94
2023/02/26 03:00:16;;;;;;;4.63;4.35;;;;;;;;;;5024065;28;20067;-92
2023/02/26 03:02:46;;;;;;;6.70;6.20;;;;;;;;;;5047636;28;20053;-91
2023/02/26 03:05:13;;;;;;;5.38;5.00;;;;;;;;;;5054239;28;20042;-92
2023/02/26 03:07:43;;;;;;;4.85;4.45;;;;;;;;;;5041221;28;20050;-94
2023/02/26 03:10:11;;;;;;;6.90;6.32;;;;;;;;;;5028239;28;20053;-92
2023/02/26 03:12:38;;;;;;;4.35;3.92;;;;;;;;;;5027682;28;20046;-92
2023/02/26 03:15:05;;;;;;;4.70;4.45;;;;;;;;;;5019714;28;20108;-93
2023/02/26 03:17:33;;;;;;;6.22;5.82;;;;;;;;;;5030029;28;20046;-94
2023/02/26 03:20:06;;;;;;;5.28;4.97;;;;;;;;;;5038026;28;20111;-93
2023/02/26 03:22:37;;;;;;;4.28;3.95;;;;;;;;;;5039680;28;20096;-95
2023/02/26 03:25:08;;;;;;;4.68;4.20;;;;;;;;;;5040073;28;20103;-93
2023/02/26 03:27:36;;;;;;;3.80;3.53;;;;;;;;;;5037991;28;20045;-93
2023/02/26 03:30:04;;;;;;;5.78;5.38;;;;;;;;;;5035709;28;20060;-92
2023/02/26 03:32:32;;;;;;;8.50;4.45;;;;;;;;;;5035591;28;20049;-92
2023/02/26 03:35:01;;;;;;;7.57;4.40;;;;;;;;;;5035388;28;20049;-93
2023/02/26 03:37:31;;;;;;;10.02;3.08;;;;;;;;;;5035501;28;20466;-93
2023/02/26 03:40:00;;;;;;;3.97;3.42;;;;;;;;;;5035011;28;20491;-93
2023/02/26 03:42:32;;;;;;;4.55;4.18;;;;;;;;;;5035493;28;20045;-94
2023/02/26 03:45:01;;;;;;;3.40;3.20;;;;;;;;;;5035265;28;20054;-93
2023/02/26 03:47:28;;;;;;;4.78;4.38;;;;;;;;;;5035477;28;20463;-92
2023/02/26 03:49:57;;;;;;;4.45;3.90;;;;;;;;;;5025684;28;20049;-94
2023/02/26 03:52:25;;;;;;;14.70;6.82;;;;;;;;;;5015896;28;20092;-91
2023/02/26 03:54:55;;;;;;;4.85;4.45;;;;;;;;;;5015171;28;20053;-92
2023/02/26 03:57:21;;;;;;;3.75;3.53;;;;;;;;;;5015369;28;20478;-92
2023/02/26 03:59:50;;;;;;;5.40;4.97;;;;;;;;;;5015451;28;20054;-94
2023/02/26 04:02:18;;;;;;;4.68;4.28;;;;;;;;;;5015300;28;20057;-93
2023/02/26 04:04:46;;;;;;;6.43;4.65;;;;;;;;;;5015691;28;20050;-94
2023/02/26 04:07:14;;;;;;;7.07;5.18;;;;;;;;;;5020789;28;20411;-93
2023/02/26 04:09:41;;;;;;;4.97;3.22;;;;;;;;;;5034684;28;20488;-94
2023/02/26 04:12:07;;;;;;;5.93;3.30;;;;;;;;;;5035144;28;20125;-94
2023/02/26 04:14:34;;;;;;;3.42;3.22;;;;;;;;;;5036837;28;20049;-93
2023/02/26 04:17:02;;;;;;;5.35;4.90;;;;;;;;;;5031669;28;20046;-95
2023/02/26 04:19:28;;;;;;;3.67;3.55;;;;;;;;;;5015355;28;20049;-94
2023/02/26 04:21:55;;;;;;;3.95;3.65;;;;;;;;;;5014851;28;20056;-94
2023/02/26 04:24:22;;;;;;;4.03;3.70;;;;;;;;;;5031958;28;20048;-94
2023/02/26 04:26:48;;;;;;;3.72;3.45;;;;;;;;;;5034774;28;20053;-93
2023/02/26 04:29:15;;;;;;;5.40;5.03;;;;;;;;;;5034349;28;20049;-93
2023/02/26 04:31:41;;;;;;;4.55;3.90;;;;;;;;;;5034777;28;20045;-94
2023/02/26 04:34:09;;;;;;;2.38;2.22;;;;;;;;;;5034338;28;20049;-92
2023/02/26 04:36:36;;;;;;;3.80;3.50;;;;;;;;;;5035170;28;20664;-92
2023/02/26 04:39:02;;;;;;;7.10;6.60;;;;;;;;;;5034232;28;20056;-93
2023/02/26 04:41:29;;;;;;;4.32;4.13;;;;;;;;;;5034640;28;20113;-93
2023/02/26 04:43:55;;;;;;;5.50;5.20;;;;;;;;;;5034950;28;20065;-93
2023/02/26 04:46:22;;;;;;;4.60;4.30;;;;;;;;;;5034883;28;20049;-93
2023/02/26 04:48:49;;;;;;;8.70;5.38;;;;;;;;;;5034232;28;20495;-93
2023/02/26 04:51:17;;;;;;;3.30;3.10;;;;;;;;;;5034496;28;20180;-94
2023/02/26 04:53:44;;;;;;;5.70;5.28;;;;;;;;;;5033921;28;20054;-94
2023/02/26 04:56:10;;;;;;;5.68;5.35;;;;;;;;;;5033457;28;20719;-93
2023/02/26 04:58:37;;;;;;;4.13;3.85;;;;;;;;;;5019447;28;20054;-94
2023/02/26 05:01:03;;;;;;;3.20;3.00;;;;;;;;;;5014393;28;20053;-94
2023/02/26 05:03:30;;;;;;;5.00;4.47;;;;;;;;;;5014806;28;20050;-94
2023/02/26 05:05:57;;;;;;;14.50;6.53;;;;;;;;;;5015607;28;20116;-94
2023/02/26 05:08:24;;;;;;;5.78;5.35;;;;;;;;;;5015210;28;20058;-93
2023/02/26 05:10:51;;;;;;;5.65;4.90;;;;;;;;;;5020823;28;20049;-93
2023/02/26 05:13:18;;;;;;;2.92;2.72;;;;;;;;;;5034437;28;20414;-92
2023/02/26 05:15:44;;;;;;;7.15;5.75;;;;;;;;;;5034322;28;20048;-93
2023/02/26 05:18:11;;;;;;;4.25;3.95;;;;;;;;;;5034137;28;20103;-93
2023/02/26 05:20:38;;;;;;;14.25;4.57;;;;;;;;;;5034074;28;20045;-92
2023/02/26 05:23:04;;;;;;;4.10;3.90;;;;;;;;;;5034266;28;20049;-92
2023/02/26 05:25:32;;;;;;;6.53;6.18;;;;;;;;;;5034826;28;20050;-93
2023/02/26 05:27:59;;;;;;;6.43;5.78;;;;;;;;;;5034137;28;20124;-93
2023/02/26 05:30:25;;;;;;;7.20;6.38;;;;;;;;;;5018045;28;20053;-91
2023/02/26 05:32:53;;;;;;;4.50;4.30;;;;;;;;;;5017746;28;20439;-93
2023/02/26 05:35:20;;;;;;;5.15;4.88;;;;;;;;;;5017664;28;20049;-94
2023/02/26 05:37:46;;;;;;;6.75;6.18;;;;;;;;;;5024039;28;20046;-94
2023/02/26 05:40:13;;;;;;;6.50;6.20;;;;;;;;;;5037478;28;20050;-92
2023/02/26 05:42:41;;;;;;;3.80;3.58;;;;;;;;;;5037144;28;20049;-93
2023/02/26 05:45:08;;;;;;;4.32;4.03;;;;;;;;;;5019293;28;20053;-94
2023/02/26 05:47:35;;;;;;;5.82;5.32;;;;;;;;;;5017187;28;20077;-93
2023/02/26 05:50:02;;;;;;;7.35;6.85;;;;;;;;;;5017685;28;20053;-92
2023/02/26 05:52:28;;;;;;;4.15;3.85;;;;;;;;;;5020315;28;20458;-95
2023/02/26 05:54:55;;;;;;;4.75;4.50;;;;;;;;;;5031673;28;20487;-93
2023/02/26 05:57:21;;;;;;;4.03;3.67;;;;;;;;;;5040993;28;20505;-94
2023/02/26 05:59:50;;;;;;;4.25;3.95;;;;;;;;;;5038488;28;20050;-94
2023/02/26 06:02:16;;;;;;;4.70;4.20;;;;;;;;;;5036609;28;20053;-92
2023/02/26 06:04:44;;;;;;;7.88;6.88;;;;;;;;;;5038714;28;20060;-94
2023/02/26 06:07:11;;;;;;;5.80;5.38;;;;;;;;;;5038067;28;20052;-95
2023/02/26 06:09:38;;;;;;;5.43;5.15;;;;;;;;;;5037698;28;20507;-95
2023/02/26 06:12:05;;;;;;;5.20;4.82;;;;;;;;;;5037446;28;20046;-94
2023/02/26 06:14:32;;;;;;;3.58;3.28;;;;;;;;;;5039187;28;20412;-95
2023/02/26 06:17:00;;;;;;;6.00;5.60;;;;;;;;;;5056791;28;20107;-93
2023/02/26 06:19:26;;;;;;;4.20;3.67;;;;;;;;;;5030652;28;20463;-95
2023/02/26 06:21:53;;;;;;;3.85;3.63;;;;;;;;;;5017946;28;20108;-93
2023/02/26 06:24:19;;;;;;;3.80;3.58;;;;;;;;;;5034590;28;20057;-94
2023/02/26 06:26:46;;;;;;;3.83;3.58;;;;;;;;;;5037844;28;20053;-94
2023/02/26 06:29:12;;;;;;;9.02;5.03;;;;;;;;;;5033950;28;20057;-93
2023/02/26 06:31:39;;;;;;;4.40;4.10;;;;;;;;;;5040903;28;20033;-93
2023/02/26 06:34:07;;;;;;;4.60;4.30;;;;;;;;;;5042079;28;20041;-93
2023/02/26 06:36:33;;;;;;;7.35;6.95;;;;;;;;;;5036945;28;20132;-93
2023/02/26 06:39:00;;;;;;;7.03;5.78;;;;;;;;;;5037063;28;20051;-92
2023/02/26 06:41:27;;;;;;;4.78;4.55;;;;;;;;;;5036759;28;20053;-94
2023/02/26 06:43:53;;;;;;;4.03;3.85;;;;;;;;;;5036228;28;20053;-94
2023/02/26 06:46:20;;;;;;;7.00;5.10;;;;;;;;;;5036985;28;20049;-94
2023/02/26 06:48:49;;;;;;;5.40;5.10;;;;;;;;;;5036924;28;20046;-94
2023/02/26 06:51:17;;;;;;;4.55;4.25;;;;;;;;;;5028900;28;20046;-93
2023/02/26 06:53:43;;;;;;;6.20;5.82;;;;;;;;;;5016748;28;20062;-93
2023/02/26 06:56:10;;;;;;;4.50;4.28;;;;;;;;;;5017141;28;20116;-93
2023/02/26 06:58:37;;;;;;;3.85;3.65;;;;;;;;;;5016601;28;20509;-94
2023/02/26 07:01:04;;;;;;;4.60;3.95;;;;;;;;;;5016865;28;20042;-94
2023/02/26 07:03:31;;;;;;;3.63;3.42;;;;;;;;;;5017477;28;20423;-94
2023/02/26 07:05:57;;;;;;;5.60;5.28;;;;;;;;;;5017626;28;20065;-94
2023/02/26 07:08:25;;;;;;;4.85;4.18;;;;;;;;;;5035223;28;20054;-95
2023/02/26 07:10:52;;;;;;;6.32;5.95;;;;;;;;;;5036070;28;20099;-94
2023/02/26 07:13:18;;;;;;;5.70;5.15;;;;;;;;;;5037344;28;20061;-94
2023/02/26 07:18:25;;;;;;;6.43;5.55;;;;;;;;;;5040970;28;20072;-94
2023/02/26 07:20:52;;;;;;;3.47;3.20;;;;;;;;;;5035875;28;20045;-95
2023/02/26 07:23:18;;;;;;;4.25;4.00;;;;;;;;;;5035832;28;20386;-93
2023/02/26 07:25:48;;;;;;;5.72;5.40;;;;;;;;;;5035750;28;20399;-95
2023/02/26 07:28:15;;;;;;;6.65;6.15;;;;;;;;;;5036187;28;20061;-94
2023/02/26 07:30:42;;;;;;;4.35;4.05;;;;;;;;;;5040924;28;20045;-94
2023/02/26 07:33:08;;;;;;;3.28;3.08;;;;;;;;;;5055977;28;20083;-94
2023/02/26 07:35:35;;;;;;;7.10;6.43;;;;;;;;;;5055121;28;20056;-93
2023/02/26 07:38:02;;;;;;;4.10;3.90;;;;;;;;;;5053838;28;20086;-93
2023/02/26 07:40:29;;;;;;;6.85;4.95;;;;;;;;;;5041199;28;20056;-96
2023/02/26 07:42:57;;;;;;;8.77;7.38;;;;;;;;;;5059088;28;20060;-93
2023/02/26 07:45:24;;;;;;;7.18;6.63;;;;;;;;;;5056479;28;20098;-94
2023/02/26 07:47:51;;;;;;;6.40;5.95;;;;;;;;;;5058026;28;20494;-93
2023/02/26 07:50:18;;;;;;;3.33;2.58;;;;;;;;;;5037257;28;20384;-92
2023/02/26 07:52:45;;;;;;;4.97;4.65;;;;;;;;;;5040597;28;20045;-94
2023/02/26 07:55:11;;;;;;;9.40;7.05;;;;;;;;;;5048854;28;20075;-94
2023/02/26 07:57:38;;;;;;;4.22;3.95;;;;;;;;;;5057280;28;20048;-93
2023/02/26 08:00:10;;;;;;;6.65;4.95;;;;;;;;;;5024911;28;20046;-94
2023/02/26 08:02:37;;;;;;;6.18;5.80;;;;;;;;;;5057498;28;20060;-94
2023/02/26 08:05:04;;;;;;;9.35;5.75;;;;;;;;;;5056409;28;20045;-95
2023/02/26 08:07:31;;;;;;;7.25;6.85;;;;;;;;;;5056821;28;20153;-93
2023/02/26 08:09:57;;;;;;;6.65;5.75;;;;;;;;;;5057010;28;20041;-94
2023/02/26 08:12:24;;;;;;;4.40;4.00;;;;;;;;;;5057767;28;20049;-95
2023/02/26 08:14:50;;;;;;;8.32;7.65;;;;;;;;;;5056831;28;20053;-94
2023/02/26 08:17:18;;;;;;;8.05;7.53;;;;;;;;;;5019451;28;20049;-94
2023/02/26 08:19:45;;;;;;;5.35;5.00;;;;;;;;;;5021424;28;20045;-94
2023/02/26 08:22:13;;;;;;;8.07;4.80;;;;;;;;;;5035951;28;20483;-96
2023/02/26 08:24:39;;;;;;;6.93;4.80;;;;;;;;;;5034837;28;20057;-92
2023/02/26 08:27:06;;;;;;;6.60;6.18;;;;;;;;;;5035563;28;20049;-94
2023/02/26 08:29:32;;;;;;;4.65;4.35;;;;;;;;;;5035302;28;20423;-94
2023/02/26 08:31:59;;;;;;;4.10;3.85;;;;;;;;;;5036118;28;20443;-93
2023/02/26 08:34:27;;;;;;;4.35;4.13;;;;;;;;;;5036377;28;20052;-95
2023/02/26 08:36:54;;;;;;;7.10;5.05;;;;;;;;;;5036218;28;20041;-92
2023/02/26 08:39:20;;;;;;;11.60;7.60;;;;;;;;;;5027182;28;20050;-93
2023/02/26 08:41:47;;;;;;;10.27;7.07;;;;;;;;;;5016949;28;20061;-94
2023/02/26 08:44:16;;;;;;;7.07;5.72;;;;;;;;;;5045824;28;20057;-94
2023/02/26 08:46:42;;;;;;;4.40;4.05;;;;;;;;;;5056755;28;20059;-93
2023/02/26 08:49:09;;;;;;;8.32;4.85;;;;;;;;;;5057019;28;20053;-95
2023/02/26 08:51:37;;;;;;;5.53;5.20;;;;;;;;;;5055332;28;20045;-94
2023/02/26 08:54:04;;;;;;;13.23;7.03;;;;;;;;;;5047604;28;20088;-95
2023/02/26 08:56:30;;;;;;;10.25;6.80;;;;;;;;;;5035663;28;20057;-95
2023/02/26 08:58:57;;;;;;;6.55;6.18;;;;;;;;;;5036280;28;20144;-94
2023/02/26 09:01:24;;;;;;;5.65;5.30;;;;;;;;;;5040300;28;20041;-95
2023/02/26 09:03:51;;;;;;;5.68;5.38;;;;;;;;;;5040862;28;20061;-94
2023/02/26 09:06:17;;;;;;;5.85;5.53;;;;;;;;;;5038964;28;20123;-93
2023/02/26 09:08:45;;;;;;;12.05;6.28;;;;;;;;;;5039243;28;20056;-92
2023/02/26 09:11:12;;;;;;;6.97;6.20;;;;;;;;;;5038919;28;20049;-93
2023/02/26 09:13:38;;;;;;;4.72;4.53;;;;;;;;;;5038645;28;20053;-92
2023/02/26 09:16:05;;;;;;;12.00;5.53;;;;;;;;;;5040732;28;20052;-94
2023/02/26 09:18:32;;;;;;;8.77;7.13;;;;;;;;;;5041576;28;20072;-93
2023/02/26 09:20:59;;;;;;;10.77;5.25;;;;;;;;;;5020235;28;20050;-94
2023/02/26 09:23:25;;;;;;;4.78;4.40;;;;;;;;;;5057640;28;20667;-93
2023/02/26 09:25:54;;;;;;;14.30;6.03;;;;;;;;;;5059436;28;20049;-92
2023/02/26 09:28:21;;;;;;;7.60;7.10;;;;;;;;;;5058517;28;20103;-94
2023/02/26 09:30:48;;;;;;;4.40;4.13;;;;;;;;;;5058362;28;20461;-92
2023/02/26 09:33:14;;;;;;;7.47;6.75;;;;;;;;;;5058552;28;20557;-92
2023/02/26 09:35:41;;;;;;;5.95;5.38;;;;;;;;;;5058883;28;20057;-91
2023/02/26 09:38:07;;;;;;;6.22;5.68;;;;;;;;;;5056703;28;20049;-91
2023/02/26 09:40:40;;;;;;;6.68;5.85;;;;;;;;;;5038452;28;20056;-91
2023/02/26 09:43:16;;;;;;;6.82;6.35;;;;;;;;;;5038263;28;20056;-90
2023/02/26 09:45:43;;;;;;;6.53;5.90;;;;;;;;;;5037968;28;20054;-90
2023/02/26 09:48:12;;;;;;;12.35;5.43;;;;;;;;;;5037300;28;20046;-90
2023/02/26 09:50:40;;;;;;;8.02;4.60;;;;;;;;;;5039366;28;20077;-92
2023/02/26 09:53:10;;;;;;;6.10;5.70;;;;;;;;;;5038332;28;20052;-90
2023/02/26 09:55:38;;;;;;;6.30;6.00;;;;;;;;;;5036598;28;20049;-89
2023/02/26 09:58:09;;;;;;;6.28;5.05;;;;;;;;;;5036952;28;20115;-89
2023/02/26 10:00:44;;;;;;;7.78;5.97;;;;;;;;;;5038118;28;20049;-92
2023/02/26 10:03:23;;;;;;;5.53;5.10;;;;;;;;;;5039513;28;20057;-91
2023/02/26 10:05:56;;;;;;;4.93;4.65;;;;;;;;;;5041338;28;20065;-90
2023/02/26 10:08:27;;;;;;;9.20;7.63;;;;;;;;;;5036740;28;20053;-90
2023/02/26 10:10:57;;;;;;;7.22;5.68;;;;;;;;;;5037585;28;20041;-92
2023/02/26 10:13:28;;;;;;;4.40;4.03;;;;;;;;;;5036702;28;20513;-92
2023/02/26 10:16:01;;;;;;;7.38;6.72;;;;;;;;;;5038233;28;20084;-91
2023/02/26 10:18:31;;;;;;;4.40;4.18;;;;;;;;;;5036790;28;20103;-93
2023/02/26 10:21:00;;;;;;;7.88;7.22;;;;;;;;;;5038985;28;20061;-88
2023/02/26 10:23:29;;;;;;;4.82;4.53;;;;;;;;;;5039433;28;20057;-92
2023/02/26 10:26:19;;;;;;;6.95;4.90;;;;;;;;;;5048498;28;20057;-91
2023/02/26 10:29:00;;;;;;;8.43;8.02;;;;;;;;;;5057002;28;20514;-95
2023/02/26 10:31:32;;;;;;;6.97;5.75;;;;;;;;;;5049323;28;20045;-91
2023/02/26 10:36:51;;;;;;;6.85;6.18;;;;;;;;;;5050509;28;20457;-92
2023/02/26 10:39:22;;;;;;;6.22;5.70;;;;;;;;;;5047893;28;20045;-91
2023/02/26 10:41:49;;;;;;;5.40;5.00;;;;;;;;;;5046301;28;20057;-91
2023/02/26 10:44:21;;;;;;;7.32;6.95;;;;;;;;;;5049822;28;20053;-92
2023/02/26 10:46:56;;;;;;;6.75;6.25;;;;;;;;;;5049883;28;20096;-93
2023/02/26 10:49:35;;;;;;;6.28;5.78;;;;;;;;;;5043923;28;20145;-91
2023/02/26 10:52:13;;;;;;;9.20;5.53;;;;;;;;;;5025346;28;20046;-93
2023/02/26 10:54:42;;;;;;;6.10;5.68;;;;;;;;;;5029190;28;20057;-91
2023/02/26 10:57:16;;;;;;;7.55;7.00;;;;;;;;;;5035948;28;20041;-91
2023/02/26 10:59:45;;;;;;;6.80;4.60;;;;;;;;;;5053941;28;20061;-91
2023/02/26 11:02:27;;;;;;;5.65;5.18;;;;;;;;;;5055774;28;20051;-93
2023/02/26 11:04:54;;;;;;;9.05;4.75;;;;;;;;;;5052466;28;20056;-94
2023/02/26 11:07:21;;;;;;;8.35;5.28;;;;;;;;;;5037538;28;20037;-93
2023/02/26 11:09:59;;;;;;;8.70;8.07;;;;;;;;;;5047531;28;20056;-94
2023/02/26 11:12:36;;;;;;;7.32;6.75;;;;;;;;;;5055947;28;20049;-95
2023/02/26 11:15:10;;;;;;;6.35;6.03;;;;;;;;;;5054745;28;20045;-94
2023/02/26 11:17:45;;;;;;;10.93;5.13;;;;;;;;;;5070837;28;20076;-95
2023/02/26 11:20:26;;;;;;;9.95;9.45;;;;;;;;;;5066197;28;20044;-95
2023/02/26 11:25:43;;;;;;;7.72;6.95;;;;;;;;;;5047884;28;20069;-94
2023/02/26 11:28:19;;;;;;;5.55;5.30;;;;;;;;;;5043563;28;20052;-94
2023/02/26 11:30:56;;;;;;;7.07;6.10;;;;;;;;;;5047737;28;20036;-93
2023/02/26 11:33:34;;;;;;;4.03;3.83;;;;;;;;;;5044167;28;20053;-92
2023/02/26 11:36:03;;;;;;;8.23;7.53;;;;;;;;;;5041870;28;20060;-94
2023/02/26 11:38:39;;;;;;;6.53;4.75;;;;;;;;;;5054480;28;20040;-94
2023/02/26 11:41:08;;;;;;;3.65;3.15;;;;;;;;;;5041165;28;20423;-92
2023/02/26 11:43:37;;;;;;;7.07;5.20;;;;;;;;;;5022672;28;20057;-95
2023/02/26 11:46:05;;;;;;;7.13;6.50;;;;;;;;;;5039461;28;20045;-93
2023/02/26 11:48:36;;;;;;;6.65;4.75;;;;;;;;;;5036770;28;20045;-95
2023/02/26 11:51:05;;;;;;;5.93;4.55;;;;;;;;;;5040083;28;20061;-93
2023/02/26 11:53:33;;;;;;;4.38;4.07;;;;;;;;;;5040927;28;20423;-93
2023/02/26 11:56:01;;;;;;;6.43;6.07;;;;;;;;;;5038182;28;20045;-93
2023/02/26 11:58:31;;;;;;;4.00;3.80;;;;;;;;;;5047007;28;20388;-94
2023/02/26 12:00:59;;;;;;;4.57;4.28;;;;;;;;;;5038638;28;20057;-95
2023/02/26 12:03:27;;;;;;;8.63;7.50;;;;;;;;;;5039237;28;20045;-95
2023/02/26 12:05:59;;;;;;;5.57;3.72;;;;;;;;;;5058194;28;20045;-95
2023/02/26 12:08:27;;;;;;;7.65;6.00;;;;;;;;;;5060072;28;20576;-95
2023/02/26 12:11:03;;;;;;;8.00;7.35;;;;;;;;;;5047517;28;20045;-92
2023/02/26 12:13:32;;;;;;;8.60;8.10;;;;;;;;;;5042237;28;20113;-93
2023/02/26 12:16:02;;;;;;;7.65;5.50;;;;;;;;;;5050794;28;20084;-93
2023/02/26 12:18:49;;;;;;;9.43;8.77;;;;;;;;;;5040348;28;20057;-96
2023/02/26 12:21:32;;;;;;;8.15;7.75;;;;;;;;;;5034422;28;20075;-92
2023/02/26 12:24:15;;;;;;;4.78;4.40;;;;;;;;;;5040310;28;20410;-92
2023/02/26 12:26:46;;;;;;;4.60;4.28;;;;;;;;;;5041696;28;20056;-95
2023/02/26 12:29:12;;;;;;;;;;;;;;;;;;5044859;28;20049;-94
2023/02/26 12:31:57;;;;;;;5.30;5.05;;;;;;;;;;5043521;28;19943;-94
2023/02/26 12:34:50;;;;;;;8.25;7.75;;;;;;;;;;5042003;28;20049;-96
2023/02/26 12:37:29;;;;;;;5.95;5.63;;;;;;;;;;4984812;28;20057;-93
2023/02/26 12:40:05;;;;;;;6.43;6.13;;;;;;;;;;4980520;28;20058;-95
2023/02/26 12:42:39;;;;;;;7.93;7.43;;;;;;;;;;4984451;28;20094;-94
2023/02/26 12:45:24;;;;;;;9.23;6.00;;;;;;;;;;4980724;28;20053;-96
2023/02/26 12:47:58;;;;;;;6.88;4.43;;;;;;;;;;4979645;28;20386;-94
2023/02/26 12:50:31;;;;;;;7.15;6.60;;;;;;;;;;4972446;28;20051;-93
2023/02/26 12:53:16;;;;;;;6.93;6.57;;;;;;;;;;4962967;28;20047;-93
2023/02/26 12:55:52;;;;;;;4.60;4.20;;;;;;;;;;4975176;28;20054;-94
2023/02/26 12:58:33;;;;;;;5.60;5.15;;;;;;;;;;4975478;28;20078;-96
2023/02/26 13:01:17;;;;;;;4.20;3.80;;;;;;;;;;4974303;28;20058;-93
2023/02/26 13:04:04;;;;;;;4.28;3.97;;;;;;;;;;4965278;28;20054;-93
2023/02/26 13:06:48;;;;;;;6.18;5.85;;;;;;;;;;4951107;28;20051;-92
2023/02/26 13:09:23;;;;;;;5.75;5.35;;;;;;;;;;4966115;28;20105;-93
2023/02/26 13:11:59;;;;;;;5.95;5.60;;;;;;;;;;4962652;28;20047;-94
2023/02/26 13:14:32;;;;;;;5.30;4.93;;;;;;;;;;4993304;28;20053;-91
2023/02/26 13:17:01;;;;;;;5.45;5.03;;;;;;;;;;5017794;28;20550;-93
2023/02/26 13:19:33;;;;;;;8.27;5.53;;;;;;;;;;5017066;28;20488;-93
2023/02/26 13:22:02;;;;;;;6.60;6.20;;;;;;;;;;5033563;28;20049;-93
2023/02/26 13:24:33;;;;;;;7.85;7.35;;;;;;;;;;5045077;28;20388;-94
2023/02/26 13:27:02;;;;;;;4.57;4.28;;;;;;;;;;5039067;28;20049;-93
2023/02/26 13:29:30;;;;;;;5.35;5.07;;;;;;;;;;5019477;28;20054;-93
2023/02/26 13:31:58;;;;;;;6.85;6.35;;;;;;;;;;5020049;28;20042;-93
2023/02/26 13:34:28;;;;;;;6.95;6.38;;;;;;;;;;5020250;28;20053;-92
2023/02/26 13:36:55;;;;;;;6.32;5.82;;;;;;;;;;5019559;28;20460;-92
2023/02/26 13:39:29;;;;;;;7.65;7.35;;;;;;;;;;5060030;28;20059;-93
2023/02/26 13:42:01;;;;;;;4.85;4.63;;;;;;;;;;5053073;28;20063;-90
2023/02/26 13:44:33;;;;;;;5.97;5.68;;;;;;;;;;5059005;28;20049;-91
2023/02/26 13:47:13;;;;;;;6.72;5.28;;;;;;;;;;5046970;28;20068;-91
2023/02/26 13:49:47;;;;;;;4.65;4.35;;;;;;;;;;5044251;28;20053;-93
2023/02/26 13:52:22;;;;;;;4.82;4.30;;;;;;;;;;5042243;28;20109;-94
2023/02/26 13:54:49;;;;;;;7.43;4.78;;;;;;;;;;5043648;28;20412;-94
2023/02/26 13:57:24;;;;;;;5.32;5.00;;;;;;;;;;5046413;28;20475;-93
2023/02/26 13:59:59;;;;;;;7.20;6.82;;;;;;;;;;5042581;28;20056;-94
2023/02/26 14:02:36;;;;;;;6.90;6.57;;;;;;;;;;5046433;28;20521;-89
2023/02/26 14:05:09;;;;;;;10.40;5.22;;;;;;;;;;5034897;28;20443;-92
2023/02/26 14:07:46;;;;;;;8.50;7.95;;;;;;;;;;5044986;28;20053;-93
2023/02/26 14:10:16;;;;;;;4.50;3.42;;;;;;;;;;5042029;28;20088;-94
2023/02/26 14:12:43;;;;;;;6.53;6.22;;;;;;;;;;5033764;28;20069;-92
2023/02/26 14:15:24;;;;;;;3.28;3.08;;;;;;;;;;5032295;28;20053;-93
2023/02/26 14:18:00;;;;;;;7.72;7.07;;;;;;;;;;5018981;28;20042;-95
2023/02/26 14:20:28;;;;;;;6.63;6.20;;;;;;;;;;5017518;28;20050;-95
2023/02/26 14:23:12;;;;;;;9.30;6.53;;;;;;;;;;5021394;28;20052;-92
2023/02/26 14:25:40;;;;;;;5.93;5.53;;;;;;;;;;5035476;28;20042;-94
2023/02/26 14:28:33;;;;;;;6.88;6.47;;;;;;;;;;5037198;28;20060;-94
2023/02/26 14:31:09;;;;;;;29.33;6.35;;;;;;;;;;4973000;28;20151;-94
2023/02/26 14:33:40;;;;;;;8.18;5.60;;;;;;;;;;4956928;29;20482;-93
2023/02/26 14:36:10;;;;;;;5.07;4.75;;;;;;;;;;4957318;29;20420;-93
2023/02/26 14:38:39;;;;;;;5.53;5.30;;;;;;;;;;4958052;29;20106;-93
2023/02/26 14:41:07;;;;;;;6.95;6.35;;;;;;;;;;4961675;28;20125;-93
2023/02/26 14:43:35;;;;;;;4.72;3.03;;;;;;;;;;4979102;28;20420;-95
2023/02/26 14:46:03;;;;;;;5.70;5.20;;;;;;;;;;4995107;28;20050;-94
2023/02/26 14:48:31;;;;;;;7.22;6.70;;;;;;;;;;4986778;28;20717;-95
2023/02/26 14:51:13;;;;;;;6.38;6.03;;;;;;;;;;4968591;28;20074;-94
2023/02/26 14:53:52;;;;;;;6.35;5.47;;;;;;;;;;4978540;28;20059;-93
2023/02/26 14:56:23;;;;;;;5.00;4.57;;;;;;;;;;4978391;28;20054;-94
2023/02/26 14:59:00;;;;;;;4.80;4.50;;;;;;;;;;4981900;28;20154;-95
2023/02/26 15:01:43;;;;;;;4.60;4.40;;;;;;;;;;4957923;29;20055;-93
2023/02/26 15:04:09;;;;;;;;;;;;;;;;;;4961097;29;20047;-95
2023/02/26 15:06:53;;;;;;;5.55;5.10;;;;;;;;;;4984653;28;19925;-93